sensor_id;sensor_type;location;lat;lon;timestamp;P1;durP1;ratioP1;P2;durP2;ratioP2
15271;SDS011;7737;51.578;7.268;2022-10-30T00:00:46;11.48;;;5.40;;
15271;SDS011;7737;51.578;7.268;2022-10-30T00:03:13;7.97;;;4.97;;
15271;SDS011;7737;51.578;7.268;2022-10-30T00:05:41;10.95;;;5.40;;
15271;SDS011;7737;51.578;7.268;2022-10-30T00:08:08;13.98;;;5.75;;
15271;SDS011;7737;51.578;7.268;2022-10-30T00:10:36;12.93;;;5.88;;
15271;SDS011;7737;51.578;7.268;2022-10-30T00:13:04;15.10;;;5.60;;
15271;SDS011;7737;51.578;7.268;2022-10-30T00:15:30;7.43;;;5.25;;
15271;SDS011;7737;51.578;7.268;2022-10-30T00:17:57;12.38;;;5.20;;
15271;SDS011;7737;51.578;7.268;2022-10-30T00:20:24;12.45;;;5.85;;
15271;SDS011;7737;51.578;7.268;2022-10-30T00:22:50;13.25;;;5.70;;
15271;SDS011;7737;51.578;7.268;2022-10-30T00:25:17;11.13;;;5.57;;
15271;SDS011;7737;51.578;7.268;2022-10-30T00:27:43;9.82;;;5.90;;
15271;SDS011;7737;51.578;7.268;2022-10-30T00:30:12;9.60;;;6.03;;
15271;SDS011;7737;51.578;7.268;2022-10-30T00:32:39;11.25;;;5.55;;
15271;SDS011;7737;51.578;7.268;2022-10-30T00:35:07;9.73;;;5.75;;
15271;SDS011;7737;51.578;7.268;2022-10-30T00:37:34;11.13;;;5.75;;
15271;SDS011;7737;51.578;7.268;2022-10-30T00:40:00;10.10;;;5.70;;
15271;SDS011;7737;51.578;7.268;2022-10-30T00:42:28;13.65;;;5.57;;
15271;SDS011;7737;51.578;7.268;2022-10-30T00:44:55;11.25;;;5.65;;
15271;SDS011;7737;51.578;7.268;2022-10-30T00:47:24;10.45;;;4.88;;
15271;SDS011;7737;51.578;7.268;2022-10-30T00:49:54;11.98;;;5.72;;
15271;SDS011;7737;51.578;7.268;2022-10-30T00:52:25;12.43;;;5.13;;
15271;SDS011;7737;51.578;7.268;2022-10-30T00:54:55;9.15;;;5.50;;
15271;SDS011;7737;51.578;7.268;2022-10-30T00:57:24;13.00;;;5.88;;
15271;SDS011;7737;51.578;7.268;2022-10-30T00:59:51;13.50;;;5.95;;
15271;SDS011;7737;51.578;7.268;2022-10-30T01:02:18;9.32;;;5.78;;
15271;SDS011;7737;51.578;7.268;2022-10-30T01:04:48;13.52;;;6.03;;
15271;SDS011;7737;51.578;7.268;2022-10-30T01:07:17;9.02;;;5.85;;
15271;SDS011;7737;51.578;7.268;2022-10-30T01:09:44;11.60;;;6.20;;
15271;SDS011;7737;51.578;7.268;2022-10-30T01:12:12;11.05;;;5.88;;
15271;SDS011;7737;51.578;7.268;2022-10-30T01:14:39;11.05;;;5.63;;
15271;SDS011;7737;51.578;7.268;2022-10-30T01:17:13;12.13;;;6.07;;
15271;SDS011;7737;51.578;7.268;2022-10-30T01:20:01;9.00;;;5.82;;
15271;SDS011;7737;51.578;7.268;2022-10-30T01:22:44;11.32;;;5.68;;
15271;SDS011;7737;51.578;7.268;2022-10-30T01:25:26;15.65;;;5.97;;
15271;SDS011;7737;51.578;7.268;2022-10-30T01:28:03;12.82;;;6.35;;
15271;SDS011;7737;51.578;7.268;2022-10-30T01:30:42;12.13;;;5.78;;
15271;SDS011;7737;51.578;7.268;2022-10-30T01:33:22;11.98;;;5.85;;
15271;SDS011;7737;51.578;7.268;2022-10-30T01:36:00;10.82;;;6.32;;
15271;SDS011;7737;51.578;7.268;2022-10-30T01:38:34;9.88;;;5.82;;
15271;SDS011;7737;51.578;7.268;2022-10-30T01:41:04;13.95;;;6.20;;
15271;SDS011;7737;51.578;7.268;2022-10-30T01:43:31;13.00;;;6.38;;
15271;SDS011;7737;51.578;7.268;2022-10-30T01:46:10;11.70;;;5.90;;
15271;SDS011;7737;51.578;7.268;2022-10-30T01:49:07;13.90;;;5.72;;
15271;SDS011;7737;51.578;7.268;2022-10-30T01:51:50;7.93;;;5.90;;
15271;SDS011;7737;51.578;7.268;2022-10-30T01:54:27;13.88;;;6.10;;
15271;SDS011;7737;51.578;7.268;2022-10-30T01:57:04;12.27;;;6.30;;
15271;SDS011;7737;51.578;7.268;2022-10-30T01:59:36;12.32;;;6.00;;
15271;SDS011;7737;51.578;7.268;2022-10-30T02:02:08;10.80;;;5.55;;
15271;SDS011;7737;51.578;7.268;2022-10-30T02:04:35;14.38;;;5.78;;
15271;SDS011;7737;51.578;7.268;2022-10-30T02:07:03;11.32;;;5.72;;
15271;SDS011;7737;51.578;7.268;2022-10-30T02:09:30;12.40;;;6.22;;
15271;SDS011;7737;51.578;7.268;2022-10-30T02:11:57;12.32;;;5.72;;
15271;SDS011;7737;51.578;7.268;2022-10-30T02:14:26;13.18;;;5.85;;
15271;SDS011;7737;51.578;7.268;2022-10-30T02:16:55;11.75;;;6.20;;
15271;SDS011;7737;51.578;7.268;2022-10-30T02:19:23;12.00;;;5.80;;
15271;SDS011;7737;51.578;7.268;2022-10-30T02:21:51;10.80;;;5.97;;
15271;SDS011;7737;51.578;7.268;2022-10-30T02:24:18;12.60;;;6.28;;
15271;SDS011;7737;51.578;7.268;2022-10-30T02:26:44;10.52;;;6.05;;
15271;SDS011;7737;51.578;7.268;2022-10-30T02:29:11;11.32;;;6.22;;
15271;SDS011;7737;51.578;7.268;2022-10-30T02:31:38;12.55;;;6.45;;
15271;SDS011;7737;51.578;7.268;2022-10-30T02:34:04;10.82;;;5.85;;
15271;SDS011;7737;51.578;7.268;2022-10-30T02:36:31;14.57;;;5.57;;
15271;SDS011;7737;51.578;7.268;2022-10-30T02:38:59;10.60;;;5.10;;
15271;SDS011;7737;51.578;7.268;2022-10-30T02:41:25;11.40;;;5.75;;
15271;SDS011;7737;51.578;7.268;2022-10-30T02:43:52;12.43;;;5.95;;
15271;SDS011;7737;51.578;7.268;2022-10-30T02:46:18;9.07;;;5.70;;
15271;SDS011;7737;51.578;7.268;2022-10-30T02:48:45;11.93;;;5.78;;
15271;SDS011;7737;51.578;7.268;2022-10-30T02:51:12;8.70;;;5.35;;
15271;SDS011;7737;51.578;7.268;2022-10-30T02:53:38;9.13;;;6.03;;
15271;SDS011;7737;51.578;7.268;2022-10-30T02:56:07;8.93;;;5.80;;
15271;SDS011;7737;51.578;7.268;2022-10-30T02:58:35;9.38;;;5.43;;
15271;SDS011;7737;51.578;7.268;2022-10-30T03:01:05;11.27;;;5.25;;
15271;SDS011;7737;51.578;7.268;2022-10-30T03:03:33;12.60;;;5.55;;
15271;SDS011;7737;51.578;7.268;2022-10-30T03:06:00;10.55;;;5.70;;
15271;SDS011;7737;51.578;7.268;2022-10-30T03:08:28;10.07;;;5.28;;
15271;SDS011;7737;51.578;7.268;2022-10-30T03:10:58;11.48;;;5.55;;
15271;SDS011;7737;51.578;7.268;2022-10-30T03:13:27;14.30;;;5.78;;
15271;SDS011;7737;51.578;7.268;2022-10-30T03:15:58;11.15;;;5.90;;
15271;SDS011;7737;51.578;7.268;2022-10-30T03:18:25;10.80;;;5.60;;
15271;SDS011;7737;51.578;7.268;2022-10-30T03:20:54;12.90;;;6.07;;
15271;SDS011;7737;51.578;7.268;2022-10-30T03:23:22;10.10;;;5.60;;
15271;SDS011;7737;51.578;7.268;2022-10-30T03:25:50;10.50;;;6.00;;
15271;SDS011;7737;51.578;7.268;2022-10-30T03:28:17;12.80;;;6.03;;
15271;SDS011;7737;51.578;7.268;2022-10-30T03:30:45;12.25;;;5.55;;
15271;SDS011;7737;51.578;7.268;2022-10-30T03:33:12;10.10;;;5.05;;
15271;SDS011;7737;51.578;7.268;2022-10-30T03:35:38;10.13;;;5.65;;
15271;SDS011;7737;51.578;7.268;2022-10-30T03:38:05;12.50;;;5.55;;
15271;SDS011;7737;51.578;7.268;2022-10-30T03:40:31;11.15;;;5.55;;
15271;SDS011;7737;51.578;7.268;2022-10-30T03:42:58;13.57;;;5.63;;
15271;SDS011;7737;51.578;7.268;2022-10-30T03:45:24;10.55;;;5.82;;
15271;SDS011;7737;51.578;7.268;2022-10-30T03:47:52;11.43;;;6.22;;
15271;SDS011;7737;51.578;7.268;2022-10-30T03:50:18;10.45;;;5.22;;
15271;SDS011;7737;51.578;7.268;2022-10-30T03:52:45;9.70;;;6.32;;
15271;SDS011;7737;51.578;7.268;2022-10-30T03:55:11;9.73;;;6.30;;
15271;SDS011;7737;51.578;7.268;2022-10-30T03:57:38;10.07;;;5.93;;
15271;SDS011;7737;51.578;7.268;2022-10-30T04:00:05;11.52;;;5.93;;
15271;SDS011;7737;51.578;7.268;2022-10-30T04:02:32;12.75;;;6.07;;
15271;SDS011;7737;51.578;7.268;2022-10-30T04:05:00;10.00;;;5.68;;
15271;SDS011;7737;51.578;7.268;2022-10-30T04:07:27;9.65;;;6.03;;
15271;SDS011;7737;51.578;7.268;2022-10-30T04:09:53;10.18;;;5.80;;
15271;SDS011;7737;51.578;7.268;2022-10-30T04:12:20;10.60;;;5.75;;
15271;SDS011;7737;51.578;7.268;2022-10-30T04:14:47;9.95;;;5.90;;
15271;SDS011;7737;51.578;7.268;2022-10-30T04:17:13;13.93;;;6.00;;
15271;SDS011;7737;51.578;7.268;2022-10-30T04:19:40;12.73;;;5.72;;
15271;SDS011;7737;51.578;7.268;2022-10-30T04:22:08;12.32;;;6.13;;
15271;SDS011;7737;51.578;7.268;2022-10-30T04:24:34;11.60;;;6.13;;
15271;SDS011;7737;51.578;7.268;2022-10-30T04:27:03;12.55;;;6.10;;
15271;SDS011;7737;51.578;7.268;2022-10-30T04:29:30;12.00;;;5.97;;
15271;SDS011;7737;51.578;7.268;2022-10-30T04:31:56;12.27;;;6.05;;
15271;SDS011;7737;51.578;7.268;2022-10-30T04:34:23;10.55;;;5.90;;
15271;SDS011;7737;51.578;7.268;2022-10-30T04:36:49;12.13;;;5.88;;
15271;SDS011;7737;51.578;7.268;2022-10-30T04:39:17;9.55;;;6.13;;
15271;SDS011;7737;51.578;7.268;2022-10-30T04:41:43;9.57;;;6.25;;
15271;SDS011;7737;51.578;7.268;2022-10-30T04:44:10;9.43;;;6.05;;
15271;SDS011;7737;51.578;7.268;2022-10-30T04:46:37;12.48;;;6.43;;
15271;SDS011;7737;51.578;7.268;2022-10-30T04:49:03;9.02;;;5.70;;
15271;SDS011;7737;51.578;7.268;2022-10-30T04:51:30;10.27;;;5.85;;
15271;SDS011;7737;51.578;7.268;2022-10-30T04:53:56;13.05;;;5.72;;
15271;SDS011;7737;51.578;7.268;2022-10-30T04:56:27;9.07;;;5.60;;
15271;SDS011;7737;51.578;7.268;2022-10-30T04:58:53;12.38;;;5.90;;
15271;SDS011;7737;51.578;7.268;2022-10-30T05:01:20;13.73;;;5.60;;
15271;SDS011;7737;51.578;7.268;2022-10-30T05:03:46;11.30;;;5.68;;
15271;SDS011;7737;51.578;7.268;2022-10-30T05:06:14;11.68;;;6.00;;
15271;SDS011;7737;51.578;7.268;2022-10-30T05:08:47;11.45;;;6.25;;
15271;SDS011;7737;51.578;7.268;2022-10-30T05:11:13;6.75;;;5.30;;
15271;SDS011;7737;51.578;7.268;2022-10-30T05:13:42;11.90;;;6.22;;
15271;SDS011;7737;51.578;7.268;2022-10-30T05:16:08;9.75;;;5.25;;
15271;SDS011;7737;51.578;7.268;2022-10-30T05:18:35;7.82;;;5.47;;
15271;SDS011;7737;51.578;7.268;2022-10-30T05:21:02;9.45;;;5.18;;
15271;SDS011;7737;51.578;7.268;2022-10-30T05:23:28;10.85;;;5.20;;
15271;SDS011;7737;51.578;7.268;2022-10-30T05:25:55;12.88;;;6.30;;
15271;SDS011;7737;51.578;7.268;2022-10-30T05:28:21;10.77;;;5.50;;
15271;SDS011;7737;51.578;7.268;2022-10-30T05:30:50;9.15;;;5.30;;
15271;SDS011;7737;51.578;7.268;2022-10-30T05:33:17;7.57;;;5.47;;
15271;SDS011;7737;51.578;7.268;2022-10-30T05:35:44;7.18;;;5.60;;
15271;SDS011;7737;51.578;7.268;2022-10-30T05:38:11;7.15;;;5.68;;
15271;SDS011;7737;51.578;7.268;2022-10-30T05:40:38;8.25;;;5.68;;
15271;SDS011;7737;51.578;7.268;2022-10-30T05:43:06;10.65;;;6.03;;
15271;SDS011;7737;51.578;7.268;2022-10-30T05:45:33;8.82;;;5.68;;
15271;SDS011;7737;51.578;7.268;2022-10-30T05:48:02;8.82;;;5.47;;
15271;SDS011;7737;51.578;7.268;2022-10-30T05:50:30;9.88;;;5.75;;
15271;SDS011;7737;51.578;7.268;2022-10-30T05:52:57;8.82;;;5.72;;
15271;SDS011;7737;51.578;7.268;2022-10-30T05:55:24;10.10;;;5.25;;
15271;SDS011;7737;51.578;7.268;2022-10-30T05:57:54;8.32;;;5.20;;
15271;SDS011;7737;51.578;7.268;2022-10-30T06:00:21;9.15;;;5.60;;
15271;SDS011;7737;51.578;7.268;2022-10-30T06:02:47;9.95;;;5.32;;
15271;SDS011;7737;51.578;7.268;2022-10-30T06:05:15;9.23;;;6.03;;
15271;SDS011;7737;51.578;7.268;2022-10-30T06:07:42;10.35;;;5.80;;
15271;SDS011;7737;51.578;7.268;2022-10-30T06:10:08;8.52;;;5.38;;
15271;SDS011;7737;51.578;7.268;2022-10-30T06:12:35;9.95;;;5.38;;
15271;SDS011;7737;51.578;7.268;2022-10-30T06:15:01;9.77;;;5.22;;
15271;SDS011;7737;51.578;7.268;2022-10-30T06:17:29;7.80;;;5.40;;
15271;SDS011;7737;51.578;7.268;2022-10-30T06:19:55;10.20;;;5.13;;
15271;SDS011;7737;51.578;7.268;2022-10-30T06:22:23;7.80;;;4.97;;
15271;SDS011;7737;51.578;7.268;2022-10-30T06:24:50;9.68;;;5.85;;
15271;SDS011;7737;51.578;7.268;2022-10-30T06:27:16;11.98;;;5.53;;
15271;SDS011;7737;51.578;7.268;2022-10-30T06:29:43;7.63;;;5.53;;
15271;SDS011;7737;51.578;7.268;2022-10-30T06:32:09;10.27;;;5.97;;
15271;SDS011;7737;51.578;7.268;2022-10-30T06:34:36;10.10;;;5.70;;
15271;SDS011;7737;51.578;7.268;2022-10-30T06:37:02;10.55;;;5.40;;
15271;SDS011;7737;51.578;7.268;2022-10-30T06:39:30;10.90;;;5.85;;
15271;SDS011;7737;51.578;7.268;2022-10-30T06:41:57;7.07;;;5.43;;
15271;SDS011;7737;51.578;7.268;2022-10-30T06:44:23;8.38;;;5.55;;
15271;SDS011;7737;51.578;7.268;2022-10-30T06:46:51;16.27;;;12.25;;
15271;SDS011;7737;51.578;7.268;2022-10-30T06:49:18;24.08;;;18.77;;
15271;SDS011;7737;51.578;7.268;2022-10-30T06:51:44;27.17;;;22.35;;
15271;SDS011;7737;51.578;7.268;2022-10-30T06:54:11;21.50;;;14.82;;
15271;SDS011;7737;51.578;7.268;2022-10-30T06:56:39;18.70;;;14.73;;
15271;SDS011;7737;51.578;7.268;2022-10-30T06:59:06;21.45;;;17.02;;
15271;SDS011;7737;51.578;7.268;2022-10-30T07:01:32;15.25;;;11.85;;
15271;SDS011;7737;51.578;7.268;2022-10-30T07:03:59;15.43;;;10.32;;
15271;SDS011;7737;51.578;7.268;2022-10-30T07:06:25;11.20;;;8.68;;
15271;SDS011;7737;51.578;7.268;2022-10-30T07:08:52;16.77;;;11.40;;
15271;SDS011;7737;51.578;7.268;2022-10-30T07:11:18;14.98;;;10.75;;
15271;SDS011;7737;51.578;7.268;2022-10-30T07:13:46;9.18;;;7.00;;
15271;SDS011;7737;51.578;7.268;2022-10-30T07:16:13;12.20;;;6.68;;
15271;SDS011;7737;51.578;7.268;2022-10-30T07:18:39;9.82;;;6.57;;
15271;SDS011;7737;51.578;7.268;2022-10-30T07:21:06;10.13;;;7.10;;
15271;SDS011;7737;51.578;7.268;2022-10-30T07:23:32;11.07;;;7.10;;
15271;SDS011;7737;51.578;7.268;2022-10-30T07:25:59;10.05;;;7.22;;
15271;SDS011;7737;51.578;7.268;2022-10-30T07:28:25;11.27;;;7.72;;
15271;SDS011;7737;51.578;7.268;2022-10-30T07:30:53;13.80;;;8.77;;
15271;SDS011;7737;51.578;7.268;2022-10-30T07:33:20;8.32;;;6.53;;
15271;SDS011;7737;51.578;7.268;2022-10-30T07:35:46;8.48;;;6.00;;
15271;SDS011;7737;51.578;7.268;2022-10-30T07:38:13;8.90;;;6.70;;
15271;SDS011;7737;51.578;7.268;2022-10-30T07:40:41;10.43;;;6.45;;
15271;SDS011;7737;51.578;7.268;2022-10-30T07:43:09;10.35;;;6.70;;
15271;SDS011;7737;51.578;7.268;2022-10-30T07:45:37;11.88;;;7.38;;
15271;SDS011;7737;51.578;7.268;2022-10-30T07:48:05;10.68;;;7.07;;
15271;SDS011;7737;51.578;7.268;2022-10-30T07:50:31;13.40;;;6.85;;
15271;SDS011;7737;51.578;7.268;2022-10-30T07:52:58;13.35;;;7.50;;
15271;SDS011;7737;51.578;7.268;2022-10-30T07:55:24;10.15;;;6.93;;
15271;SDS011;7737;51.578;7.268;2022-10-30T07:57:51;9.60;;;6.85;;
15271;SDS011;7737;51.578;7.268;2022-10-30T08:00:18;10.63;;;7.03;;
15271;SDS011;7737;51.578;7.268;2022-10-30T08:02:47;10.63;;;6.65;;
15271;SDS011;7737;51.578;7.268;2022-10-30T08:05:16;11.02;;;6.80;;
15271;SDS011;7737;51.578;7.268;2022-10-30T08:07:45;9.43;;;7.40;;
15271;SDS011;7737;51.578;7.268;2022-10-30T08:10:12;10.88;;;7.88;;
15271;SDS011;7737;51.578;7.268;2022-10-30T08:12:39;8.45;;;7.13;;
15271;SDS011;7737;51.578;7.268;2022-10-30T08:15:08;10.50;;;7.25;;
15271;SDS011;7737;51.578;7.268;2022-10-30T08:17:39;12.40;;;7.32;;
15271;SDS011;7737;51.578;7.268;2022-10-30T08:20:07;8.20;;;6.50;;
15271;SDS011;7737;51.578;7.268;2022-10-30T08:22:36;12.43;;;6.70;;
15271;SDS011;7737;51.578;7.268;2022-10-30T08:25:09;10.15;;;6.75;;
15271;SDS011;7737;51.578;7.268;2022-10-30T08:27:36;9.48;;;6.40;;
15271;SDS011;7737;51.578;7.268;2022-10-30T08:30:02;9.45;;;6.13;;
15271;SDS011;7737;51.578;7.268;2022-10-30T08:32:29;9.38;;;6.00;;
15271;SDS011;7737;51.578;7.268;2022-10-30T08:34:56;13.05;;;6.00;;
15271;SDS011;7737;51.578;7.268;2022-10-30T08:37:23;9.48;;;5.68;;
15271;SDS011;7737;51.578;7.268;2022-10-30T08:39:50;14.93;;;5.80;;
15271;SDS011;7737;51.578;7.268;2022-10-30T08:42:17;9.45;;;5.80;;
15271;SDS011;7737;51.578;7.268;2022-10-30T08:44:43;8.50;;;5.93;;
15271;SDS011;7737;51.578;7.268;2022-10-30T08:47:10;8.52;;;6.05;;
15271;SDS011;7737;51.578;7.268;2022-10-30T08:49:36;9.90;;;6.10;;
15271;SDS011;7737;51.578;7.268;2022-10-30T08:52:06;12.15;;;5.40;;
15271;SDS011;7737;51.578;7.268;2022-10-30T08:54:33;14.60;;;6.03;;
15271;SDS011;7737;51.578;7.268;2022-10-30T08:57:00;9.48;;;6.13;;
15271;SDS011;7737;51.578;7.268;2022-10-30T08:59:27;12.02;;;6.43;;
15271;SDS011;7737;51.578;7.268;2022-10-30T09:01:54;10.40;;;5.72;;
15271;SDS011;7737;51.578;7.268;2022-10-30T09:04:20;9.27;;;5.18;;
15271;SDS011;7737;51.578;7.268;2022-10-30T09:06:47;11.82;;;5.88;;
15271;SDS011;7737;51.578;7.268;2022-10-30T09:09:13;8.57;;;5.20;;
15271;SDS011;7737;51.578;7.268;2022-10-30T09:11:40;9.38;;;5.35;;
15271;SDS011;7737;51.578;7.268;2022-10-30T09:14:08;11.93;;;5.65;;
15271;SDS011;7737;51.578;7.268;2022-10-30T09:16:35;9.38;;;5.40;;
15271;SDS011;7737;51.578;7.268;2022-10-30T09:19:01;10.10;;;5.50;;
15271;SDS011;7737;51.578;7.268;2022-10-30T09:21:28;9.23;;;5.00;;
15271;SDS011;7737;51.578;7.268;2022-10-30T09:23:54;11.32;;;4.70;;
15271;SDS011;7737;51.578;7.268;2022-10-30T09:26:21;9.93;;;4.82;;
15271;SDS011;7737;51.578;7.268;2022-10-30T09:28:48;9.77;;;4.90;;
15271;SDS011;7737;51.578;7.268;2022-10-30T09:31:16;10.98;;;5.05;;
15271;SDS011;7737;51.578;7.268;2022-10-30T09:33:42;8.73;;;5.13;;
15271;SDS011;7737;51.578;7.268;2022-10-30T09:36:09;10.07;;;5.13;;
15271;SDS011;7737;51.578;7.268;2022-10-30T09:38:35;8.43;;;4.68;;
15271;SDS011;7737;51.578;7.268;2022-10-30T09:41:06;7.65;;;4.72;;
15271;SDS011;7737;51.578;7.268;2022-10-30T09:43:47;11.48;;;4.80;;
15271;SDS011;7737;51.578;7.268;2022-10-30T09:46:40;10.93;;;5.50;;
15271;SDS011;7737;51.578;7.268;2022-10-30T09:49:22;10.82;;;5.22;;
15271;SDS011;7737;51.578;7.268;2022-10-30T09:52:11;7.53;;;4.70;;
15271;SDS011;7737;51.578;7.268;2022-10-30T09:54:51;12.13;;;5.15;;
15271;SDS011;7737;51.578;7.268;2022-10-30T09:57:28;9.98;;;4.45;;
15271;SDS011;7737;51.578;7.268;2022-10-30T10:00:04;8.35;;;5.03;;
15271;SDS011;7737;51.578;7.268;2022-10-30T10:02:36;12.48;;;5.20;;
15271;SDS011;7737;51.578;7.268;2022-10-30T10:05:09;12.23;;;4.70;;
15271;SDS011;7737;51.578;7.268;2022-10-30T10:07:44;11.63;;;4.97;;
15271;SDS011;7737;51.578;7.268;2022-10-30T10:10:15;11.98;;;4.93;;
15271;SDS011;7737;51.578;7.268;2022-10-30T10:12:45;9.73;;;4.70;;
15271;SDS011;7737;51.578;7.268;2022-10-30T10:15:16;9.32;;;4.57;;
15271;SDS011;7737;51.578;7.268;2022-10-30T10:17:50;9.52;;;4.25;;
15271;SDS011;7737;51.578;7.268;2022-10-30T10:20:21;7.25;;;4.10;;
15271;SDS011;7737;51.578;7.268;2022-10-30T10:22:55;11.10;;;4.07;;
15271;SDS011;7737;51.578;7.268;2022-10-30T10:25:24;9.10;;;4.47;;
15271;SDS011;7737;51.578;7.268;2022-10-30T10:27:56;7.95;;;3.90;;
15271;SDS011;7737;51.578;7.268;2022-10-30T10:30:35;11.40;;;4.32;;
15271;SDS011;7737;51.578;7.268;2022-10-30T10:33:16;10.95;;;4.55;;
15271;SDS011;7737;51.578;7.268;2022-10-30T10:36:00;8.55;;;4.15;;
15271;SDS011;7737;51.578;7.268;2022-10-30T10:38:38;8.98;;;3.92;;
15271;SDS011;7737;51.578;7.268;2022-10-30T10:41:17;11.55;;;4.53;;
15271;SDS011;7737;51.578;7.268;2022-10-30T10:43:57;8.18;;;3.90;;
15271;SDS011;7737;51.578;7.268;2022-10-30T10:46:44;11.20;;;4.18;;
15271;SDS011;7737;51.578;7.268;2022-10-30T10:49:26;6.85;;;3.60;;
15271;SDS011;7737;51.578;7.268;2022-10-30T10:52:04;6.95;;;3.85;;
15271;SDS011;7737;51.578;7.268;2022-10-30T10:54:35;10.45;;;4.10;;
15271;SDS011;7737;51.578;7.268;2022-10-30T10:57:07;7.55;;;3.65;;
15271;SDS011;7737;51.578;7.268;2022-10-30T10:59:46;6.95;;;3.80;;
15271;SDS011;7737;51.578;7.268;2022-10-30T11:02:27;9.30;;;3.80;;
15271;SDS011;7737;51.578;7.268;2022-10-30T11:05:03;11.40;;;3.95;;
15271;SDS011;7737;51.578;7.268;2022-10-30T11:07:34;11.55;;;4.13;;
15271;SDS011;7737;51.578;7.268;2022-10-30T11:10:05;9.50;;;3.60;;
15271;SDS011;7737;51.578;7.268;2022-10-30T11:12:37;8.82;;;3.58;;
15271;SDS011;7737;51.578;7.268;2022-10-30T11:15:05;9.77;;;3.72;;
15271;SDS011;7737;51.578;7.268;2022-10-30T11:17:44;7.88;;;3.90;;
15271;SDS011;7737;51.578;7.268;2022-10-30T11:20:21;11.02;;;3.65;;
15271;SDS011;7737;51.578;7.268;2022-10-30T11:22:54;10.20;;;4.00;;
15271;SDS011;7737;51.578;7.268;2022-10-30T11:25:21;10.27;;;4.20;;
15271;SDS011;7737;51.578;7.268;2022-10-30T11:27:52;8.82;;;4.13;;
15271;SDS011;7737;51.578;7.268;2022-10-30T11:30:21;10.80;;;4.18;;
15271;SDS011;7737;51.578;7.268;2022-10-30T11:32:50;10.70;;;4.50;;
15271;SDS011;7737;51.578;7.268;2022-10-30T11:35:17;8.05;;;4.00;;
15271;SDS011;7737;51.578;7.268;2022-10-30T11:37:47;6.43;;;4.57;;
15271;SDS011;7737;51.578;7.268;2022-10-30T11:40:16;7.28;;;3.78;;
15271;SDS011;7737;51.578;7.268;2022-10-30T11:42:45;10.27;;;4.00;;
15271;SDS011;7737;51.578;7.268;2022-10-30T11:45:15;10.68;;;4.10;;
15271;SDS011;7737;51.578;7.268;2022-10-30T11:47:43;8.45;;;4.15;;
15271;SDS011;7737;51.578;7.268;2022-10-30T11:50:16;10.35;;;3.80;;
15271;SDS011;7737;51.578;7.268;2022-10-30T12:16:22;5.80;;;3.40;;
15271;SDS011;7737;51.578;7.268;2022-10-30T12:18:59;8.15;;;3.40;;
15271;SDS011;7737;51.578;7.268;2022-10-30T12:21:28;8.38;;;3.90;;
15271;SDS011;7737;51.578;7.268;2022-10-30T12:23:57;11.15;;;5.20;;
15271;SDS011;7737;51.578;7.268;2022-10-30T12:26:30;8.57;;;4.13;;
15271;SDS011;7737;51.578;7.268;2022-10-30T12:28:59;7.05;;;4.22;;
15271;SDS011;7737;51.578;7.268;2022-10-30T12:31:36;9.52;;;3.85;;
15271;SDS011;7737;51.578;7.268;2022-10-30T12:34:12;7.88;;;3.60;;
15271;SDS011;7737;51.578;7.268;2022-10-30T12:36:49;8.82;;;4.45;;
15271;SDS011;7737;51.578;7.268;2022-10-30T12:39:22;8.55;;;4.75;;
15271;SDS011;7737;51.578;7.268;2022-10-30T12:41:53;7.85;;;4.00;;
15271;SDS011;7737;51.578;7.268;2022-10-30T12:44:26;10.38;;;3.72;;
15271;SDS011;7737;51.578;7.268;2022-10-30T12:47:00;7.85;;;3.50;;
15271;SDS011;7737;51.578;7.268;2022-10-30T12:49:34;7.72;;;3.75;;
15271;SDS011;7737;51.578;7.268;2022-10-30T12:52:07;10.05;;;3.70;;
15271;SDS011;7737;51.578;7.268;2022-10-30T12:54:39;10.65;;;3.50;;
15271;SDS011;7737;51.578;7.268;2022-10-30T12:57:11;8.27;;;3.17;;
15271;SDS011;7737;51.578;7.268;2022-10-30T12:59:43;7.75;;;3.60;;
15271;SDS011;7737;51.578;7.268;2022-10-30T13:02:22;11.52;;;3.80;;
15271;SDS011;7737;51.578;7.268;2022-10-30T13:04:58;7.25;;;3.42;;
15271;SDS011;7737;51.578;7.268;2022-10-30T13:07:30;6.57;;;3.03;;
15271;SDS011;7737;51.578;7.268;2022-10-30T13:10:12;8.55;;;3.60;;
15271;SDS011;7737;51.578;7.268;2022-10-30T13:12:48;10.20;;;3.20;;
15271;SDS011;7737;51.578;7.268;2022-10-30T13:15:20;7.93;;;3.33;;
15271;SDS011;7737;51.578;7.268;2022-10-30T13:17:52;8.40;;;3.10;;
15271;SDS011;7737;51.578;7.268;2022-10-30T13:20:22;8.93;;;4.00;;
15271;SDS011;7737;51.578;7.268;2022-10-30T13:22:52;6.82;;;3.17;;
15271;SDS011;7737;51.578;7.268;2022-10-30T13:25:26;8.35;;;3.60;;
15271;SDS011;7737;51.578;7.268;2022-10-30T13:28:01;9.38;;;3.63;;
15271;SDS011;7737;51.578;7.268;2022-10-30T13:30:36;7.45;;;3.50;;
15271;SDS011;7737;51.578;7.268;2022-10-30T13:33:10;7.78;;;3.40;;
15271;SDS011;7737;51.578;7.268;2022-10-30T13:35:45;11.27;;;3.35;;
15271;SDS011;7737;51.578;7.268;2022-10-30T13:38:31;8.23;;;3.40;;
15271;SDS011;7737;51.578;7.268;2022-10-30T13:41:06;6.55;;;3.53;;
15271;SDS011;7737;51.578;7.268;2022-10-30T13:43:41;10.68;;;3.35;;
15271;SDS011;7737;51.578;7.268;2022-10-30T13:46:21;8.25;;;3.35;;
15271;SDS011;7737;51.578;7.268;2022-10-30T13:48:59;8.13;;;3.17;;
15271;SDS011;7737;51.578;7.268;2022-10-30T13:51:38;7.40;;;3.05;;
15271;SDS011;7737;51.578;7.268;2022-10-30T13:54:09;9.77;;;3.38;;
15271;SDS011;7737;51.578;7.268;2022-10-30T13:56:40;6.40;;;3.15;;
15271;SDS011;7737;51.578;7.268;2022-10-30T13:59:12;10.27;;;3.15;;
15271;SDS011;7737;51.578;7.268;2022-10-30T14:01:50;10.98;;;3.35;;
15271;SDS011;7737;51.578;7.268;2022-10-30T14:04:27;7.22;;;3.53;;
15271;SDS011;7737;51.578;7.268;2022-10-30T14:07:01;9.27;;;3.47;;
15271;SDS011;7737;51.578;7.268;2022-10-30T14:09:42;7.55;;;3.35;;
15271;SDS011;7737;51.578;7.268;2022-10-30T14:15:13;6.63;;;3.55;;
15271;SDS011;7737;51.578;7.268;2022-10-30T14:20:45;7.18;;;3.50;;
15271;SDS011;7737;51.578;7.268;2022-10-30T14:23:13;9.23;;;4.07;;
15271;SDS011;7737;51.578;7.268;2022-10-30T14:25:48;9.02;;;3.35;;
15271;SDS011;7737;51.578;7.268;2022-10-30T14:28:39;7.82;;;3.65;;
15271;SDS011;7737;51.578;7.268;2022-10-30T14:31:07;6.80;;;3.25;;
15271;SDS011;7737;51.578;7.268;2022-10-30T14:33:40;10.20;;;3.60;;
15271;SDS011;7737;51.578;7.268;2022-10-30T14:36:15;11.07;;;3.47;;
15271;SDS011;7737;51.578;7.268;2022-10-30T14:38:53;7.35;;;3.53;;
15271;SDS011;7737;51.578;7.268;2022-10-30T14:44:16;10.07;;;3.90;;
15271;SDS011;7737;51.578;7.268;2022-10-30T14:46:56;8.32;;;3.67;;
15271;SDS011;7737;51.578;7.268;2022-10-30T14:49:40;9.55;;;3.80;;
15271;SDS011;7737;51.578;7.268;2022-10-30T14:52:18;10.88;;;3.80;;
15271;SDS011;7737;51.578;7.268;2022-10-30T14:54:56;10.63;;;3.83;;
15271;SDS011;7737;51.578;7.268;2022-10-30T14:57:43;7.88;;;3.72;;
15271;SDS011;7737;51.578;7.268;2022-10-30T15:03:06;9.25;;;4.40;;
15271;SDS011;7737;51.578;7.268;2022-10-30T15:05:44;9.18;;;4.80;;
15271;SDS011;7737;51.578;7.268;2022-10-30T15:11:11;9.90;;;4.75;;
15271;SDS011;7737;51.578;7.268;2022-10-30T15:13:45;8.57;;;4.05;;
15271;SDS011;7737;51.578;7.268;2022-10-30T15:16:14;7.93;;;3.95;;
15271;SDS011;7737;51.578;7.268;2022-10-30T15:18:43;8.25;;;4.50;;
15271;SDS011;7737;51.578;7.268;2022-10-30T15:21:13;8.27;;;4.38;;
15271;SDS011;7737;51.578;7.268;2022-10-30T15:23:48;9.70;;;4.63;;
15271;SDS011;7737;51.578;7.268;2022-10-30T15:26:18;10.68;;;4.63;;
15271;SDS011;7737;51.578;7.268;2022-10-30T15:28:46;7.50;;;4.10;;
15271;SDS011;7737;51.578;7.268;2022-10-30T15:31:20;7.22;;;4.40;;
15271;SDS011;7737;51.578;7.268;2022-10-30T15:33:48;7.43;;;4.55;;
15271;SDS011;7737;51.578;7.268;2022-10-30T15:36:15;9.32;;;4.53;;
15271;SDS011;7737;51.578;7.268;2022-10-30T15:38:53;6.60;;;4.40;;
15271;SDS011;7737;51.578;7.268;2022-10-30T15:41:29;9.23;;;3.97;;
15271;SDS011;7737;51.578;7.268;2022-10-30T15:43:56;10.20;;;4.53;;
15271;SDS011;7737;51.578;7.268;2022-10-30T15:46:23;8.95;;;4.57;;
15271;SDS011;7737;51.578;7.268;2022-10-30T15:48:50;9.10;;;4.60;;